createdAt,value
2023-03-22T00:02:00.636Z,9.30
2023-03-22T00:08:05.870Z,9.40
2023-03-22T00:14:07.696Z,9.40
2023-03-22T00:20:10.150Z,9.40
2023-03-22T00:26:13.610Z,9.40
2023-03-22T00:32:15.548Z,9.50
2023-03-22T00:38:17.588Z,9.50
2023-03-22T00:44:19.739Z,9.50
2023-03-22T00:50:21.551Z,9.60
2023-03-22T00:56:25.672Z,9.60
2023-03-22T01:02:29.827Z,9.60
2023-03-22T01:08:33.733Z,9.70
2023-03-22T01:14:35.996Z,9.70
2023-03-22T01:20:38.652Z,9.70
2023-03-22T01:26:40.790Z,9.70
2023-03-22T01:32:42.848Z,9.70
2023-03-22T01:38:44.929Z,9.80
2023-03-22T01:45:16.713Z,9.80
2023-03-22T01:51:23.141Z,9.80
2023-03-22T01:57:25.786Z,9.70
2023-03-22T02:04:07.376Z,9.70
2023-03-22T02:10:19.314Z,9.70
2023-03-22T02:16:21.136Z,9.80
2023-03-22T02:22:44.512Z,9.80
2023-03-22T02:29:04.859Z,9.80
2023-03-22T02:35:44.333Z,9.70
2023-03-22T02:42:12.532Z,9.60
2023-03-22T02:48:24.660Z,9.50
2023-03-22T02:54:33.247Z,9.50
2023-03-22T03:00:36.722Z,9.60
2023-03-22T03:06:46.200Z,9.50
2023-03-22T03:12:48.254Z,9.40
2023-03-22T03:18:58.959Z,9.60
2023-03-22T03:25:12.546Z,9.60
2023-03-22T03:31:27.287Z,9.50
2023-03-22T03:37:41.689Z,9.40
2023-03-22T03:43:45.885Z,9.30
2023-03-22T03:49:47.724Z,9.20
2023-03-22T03:55:49.737Z,9.20
2023-03-22T04:01:52.608Z,9.20
2023-03-22T04:07:54.602Z,9.30
2023-03-22T04:13:56.636Z,9.20
2023-03-22T04:19:59.170Z,9.40
2023-03-22T04:26:01.227Z,9.40
2023-03-22T04:32:03.907Z,9.50
2023-03-22T04:38:09.797Z,9.50
2023-03-22T04:44:11.859Z,9.50
2023-03-22T04:50:15.808Z,9.60
2023-03-22T04:56:17.966Z,9.60
2023-03-22T05:02:20.004Z,9.60
2023-03-22T05:08:25.420Z,9.70
2023-03-22T05:14:27.690Z,9.60
2023-03-22T05:20:29.559Z,9.60
2023-03-22T05:26:31.478Z,9.70
2023-03-22T05:32:33.306Z,9.70
2023-03-22T05:38:35.457Z,9.60
2023-03-22T05:44:37.436Z,9.60
2023-03-22T05:50:39.587Z,9.60
2023-03-22T05:56:41.697Z,9.60
2023-03-22T06:02:46.621Z,9.70
2023-03-22T06:08:48.395Z,9.80
2023-03-22T06:14:50.533Z,9.90
2023-03-22T06:20:52.576Z,9.90
2023-03-22T06:26:54.454Z,9.90
2023-03-22T06:33:00.545Z,10.10
2023-03-22T06:39:05.203Z,10.20
2023-03-22T06:45:08.272Z,10.40
2023-03-22T06:51:10.441Z,10.30
2023-03-22T06:57:12.656Z,10.50
2023-03-22T07:03:14.674Z,10.90
2023-03-22T07:09:16.991Z,10.90
2023-03-22T07:15:20.164Z,11.00
2023-03-22T07:21:22.205Z,11.20
2023-03-22T07:27:24.230Z,11.10
2023-03-22T07:33:26.176Z,11.10
2023-03-22T07:39:29.120Z,11.10
2023-03-22T07:45:31.376Z,11.20
2023-03-22T07:51:33.254Z,11.30
2023-03-22T07:57:36.784Z,11.40
2023-03-22T08:03:39.244Z,11.30
2023-03-22T08:09:41.277Z,11.20
2023-03-22T08:15:43.554Z,11.10
2023-03-22T08:21:45.843Z,11.10
2023-03-22T08:27:47.902Z,11.10
2023-03-22T08:33:50.373Z,11.30
2023-03-22T08:39:52.834Z,11.40
2023-03-22T08:45:55.036Z,11.60
2023-03-22T08:51:58.010Z,11.90
2023-03-22T08:58:01.962Z,12.00
2023-03-22T09:04:05.253Z,12.10
2023-03-22T09:10:08.479Z,12.20
2023-03-22T09:16:11.080Z,12.10
2023-03-22T09:22:13.158Z,12.10
2023-03-22T09:28:17.314Z,12.50
2023-03-22T09:34:19.259Z,12.60
2023-03-22T09:40:25.267Z,12.70
2023-03-22T09:46:34.281Z,12.90
2023-03-22T09:52:36.213Z,12.90
2023-03-22T09:59:04.776Z,13.20
2023-03-22T10:05:17.474Z,13.30
2023-03-22T10:11:45.111Z,13.30
2023-03-22T10:17:53.307Z,13.30
2023-03-22T10:24:02.411Z,13.20
2023-03-22T10:30:24.847Z,13.40
2023-03-22T10:36:34.858Z,13.50
2023-03-22T10:42:39.610Z,13.40
2023-03-22T10:48:45.849Z,13.50
2023-03-22T10:54:47.766Z,13.80
2023-03-22T11:00:54.215Z,13.40
2023-03-22T11:06:56.569Z,13.70
2023-03-22T11:13:07.303Z,13.60
2023-03-22T11:19:14.912Z,13.80
2023-03-22T11:25:29.000Z,14.10
2023-03-22T11:31:51.565Z,14.10
2023-03-22T11:37:56.293Z,14.20
2023-03-22T11:44:04.900Z,14.40
2023-03-22T11:50:10.707Z,14.30
2023-03-22T11:56:22.085Z,14.40
2023-03-22T12:02:32.586Z,14.20
2023-03-22T12:08:46.262Z,14.30
2023-03-22T12:14:59.099Z,14.30
2023-03-22T12:21:02.087Z,14.50
2023-03-22T12:27:27.544Z,14.60
2023-03-22T12:34:01.170Z,14.30
2023-03-22T12:40:32.226Z,14.20
2023-03-22T12:46:42.311Z,14.40
2023-03-22T12:52:58.592Z,14.50
2023-03-22T12:59:05.135Z,14.80
2023-03-22T13:05:10.974Z,14.60
2023-03-22T13:11:23.970Z,14.40
2023-03-22T13:17:26.007Z,14.20
2023-03-22T13:23:28.373Z,13.90
2023-03-22T13:29:33.236Z,13.70
2023-03-22T13:36:01.436Z,13.40
2023-03-22T13:42:20.864Z,13.30
2023-03-22T13:48:41.374Z,13.30
2023-03-22T13:54:48.161Z,13.20
2023-03-22T14:00:54.913Z,13.40
2023-03-22T14:07:00.294Z,13.40
2023-03-22T14:13:24.004Z,13.30
2023-03-22T14:19:31.759Z,13.30
